sensor_id;sensor_type;location;lat;lon;timestamp;temperature;humidity
29501;DHT22;16450;50.288;10.966;2022-07-30T00:00:29;17.50;90.10
29501;DHT22;16450;50.288;10.966;2022-07-30T00:03:30;17.50;90.10
29501;DHT22;16450;50.288;10.966;2022-07-30T00:06:32;17.40;90.00
29501;DHT22;16450;50.288;10.966;2022-07-30T00:09:32;17.30;89.80
29501;DHT22;16450;50.288;10.966;2022-07-30T00:12:33;17.40;89.90
29501;DHT22;16450;50.288;10.966;2022-07-30T00:15:34;17.20;89.50
29501;DHT22;16450;50.288;10.966;2022-07-30T00:18:34;17.20;89.70
29501;DHT22;16450;50.288;10.966;2022-07-30T00:21:35;17.10;89.60
29501;DHT22;16450;50.288;10.966;2022-07-30T00:24:36;17.10;89.70
29501;DHT22;16450;50.288;10.966;2022-07-30T00:27:36;17.00;89.80
29501;DHT22;16450;50.288;10.966;2022-07-30T00:30:37;17.00;89.70
29501;DHT22;16450;50.288;10.966;2022-07-30T00:33:39;16.90;89.70
29501;DHT22;16450;50.288;10.966;2022-07-30T00:36:40;16.80;89.60
29501;DHT22;16450;50.288;10.966;2022-07-30T00:39:41;16.80;89.60
29501;DHT22;16450;50.288;10.966;2022-07-30T00:42:44;16.70;89.70
29501;DHT22;16450;50.288;10.966;2022-07-30T00:45:45;16.70;90.00
29501;DHT22;16450;50.288;10.966;2022-07-30T00:48:46;16.60;90.10
29501;DHT22;16450;50.288;10.966;2022-07-30T00:51:47;16.60;90.20
29501;DHT22;16450;50.288;10.966;2022-07-30T00:54:47;16.50;90.10
29501;DHT22;16450;50.288;10.966;2022-07-30T00:57:48;16.50;90.20
29501;DHT22;16450;50.288;10.966;2022-07-30T01:00:48;16.50;90.30
29501;DHT22;16450;50.288;10.966;2022-07-30T01:03:49;16.30;90.20
29501;DHT22;16450;50.288;10.966;2022-07-30T01:06:50;16.40;90.40
29501;DHT22;16450;50.288;10.966;2022-07-30T01:09:50;16.40;90.50
29501;DHT22;16450;50.288;10.966;2022-07-30T01:12:51;16.40;90.70
29501;DHT22;16450;50.288;10.966;2022-07-30T01:15:54;16.30;90.90
29501;DHT22;16450;50.288;10.966;2022-07-30T01:18:56;16.30;90.90
29501;DHT22;16450;50.288;10.966;2022-07-30T01:28:53;16.30;90.50
29501;DHT22;16450;50.288;10.966;2022-07-30T01:31:55;16.30;90.90
29501;DHT22;16450;50.288;10.966;2022-07-30T01:35:00;16.30;90.80
29501;DHT22;16450;50.288;10.966;2022-07-30T01:38:03;16.30;90.80
29501;DHT22;16450;50.288;10.966;2022-07-30T01:41:05;16.30;90.70
29501;DHT22;16450;50.288;10.966;2022-07-30T01:44:09;16.20;90.60
29501;DHT22;16450;50.288;10.966;2022-07-30T01:47:13;16.20;90.40
29501;DHT22;16450;50.288;10.966;2022-07-30T01:50:15;16.20;90.30
29501;DHT22;16450;50.288;10.966;2022-07-30T01:53:18;16.10;90.30
29501;DHT22;16450;50.288;10.966;2022-07-30T01:56:22;16.10;90.30
29501;DHT22;16450;50.288;10.966;2022-07-30T01:59:24;16.00;90.30
29501;DHT22;16450;50.288;10.966;2022-07-30T02:02:26;15.90;90.40
29501;DHT22;16450;50.288;10.966;2022-07-30T02:05:30;15.90;90.60
29501;DHT22;16450;50.288;10.966;2022-07-30T02:08:35;15.90;90.60
29501;DHT22;16450;50.288;10.966;2022-07-30T02:11:43;15.90;90.80
29501;DHT22;16450;50.288;10.966;2022-07-30T02:15:24;15.90;90.80
29501;DHT22;16450;50.288;10.966;2022-07-30T02:18:35;15.90;90.80
29501;DHT22;16450;50.288;10.966;2022-07-30T02:21:41;15.80;90.60
29501;DHT22;16450;50.288;10.966;2022-07-30T02:24:43;15.80;90.90
29501;DHT22;16450;50.288;10.966;2022-07-30T02:27:49;15.80;91.10
29501;DHT22;16450;50.288;10.966;2022-07-30T02:30:56;15.80;90.90
29501;DHT22;16450;50.288;10.966;2022-07-30T02:34:00;15.80;90.90
29501;DHT22;16450;50.288;10.966;2022-07-30T02:37:02;15.80;91.20
29501;DHT22;16450;50.288;10.966;2022-07-30T02:40:04;15.80;91.30
29501;DHT22;16450;50.288;10.966;2022-07-30T02:43:05;15.80;91.10
29501;DHT22;16450;50.288;10.966;2022-07-30T02:46:06;15.80;91.00
29501;DHT22;16450;50.288;10.966;2022-07-30T02:49:09;15.70;90.80
29501;DHT22;16450;50.288;10.966;2022-07-30T02:52:12;15.70;90.60
29501;DHT22;16450;50.288;10.966;2022-07-30T02:55:15;15.60;90.60
29501;DHT22;16450;50.288;10.966;2022-07-30T02:58:23;15.60;90.80
29501;DHT22;16450;50.288;10.966;2022-07-30T03:01:25;15.60;90.80
29501;DHT22;16450;50.288;10.966;2022-07-30T03:04:27;15.60;91.00
29501;DHT22;16450;50.288;10.966;2022-07-30T03:07:28;15.60;91.10
29501;DHT22;16450;50.288;10.966;2022-07-30T03:10:30;15.50;91.00
29501;DHT22;16450;50.288;10.966;2022-07-30T03:13:31;15.50;91.10
29501;DHT22;16450;50.288;10.966;2022-07-30T03:16:36;15.50;91.20
29501;DHT22;16450;50.288;10.966;2022-07-30T03:19:38;15.50;91.10
29501;DHT22;16450;50.288;10.966;2022-07-30T03:22:42;15.50;91.10
29501;DHT22;16450;50.288;10.966;2022-07-30T03:25:47;15.50;91.10
29501;DHT22;16450;50.288;10.966;2022-07-30T03:28:48;15.40;91.20
29501;DHT22;16450;50.288;10.966;2022-07-30T03:31:50;15.50;91.30
29501;DHT22;16450;50.288;10.966;2022-07-30T03:34:51;15.40;91.20
29501;DHT22;16450;50.288;10.966;2022-07-30T03:37:53;15.40;91.10
29501;DHT22;16450;50.288;10.966;2022-07-30T03:40:54;15.40;91.00
29501;DHT22;16450;50.288;10.966;2022-07-30T03:43:56;15.40;91.10
29501;DHT22;16450;50.288;10.966;2022-07-30T03:46:57;15.40;91.10
29501;DHT22;16450;50.288;10.966;2022-07-30T03:49:59;15.30;91.00
29501;DHT22;16450;50.288;10.966;2022-07-30T03:53:02;15.30;91.00
29501;DHT22;16450;50.288;10.966;2022-07-30T03:56:03;15.30;91.00
29501;DHT22;16450;50.288;10.966;2022-07-30T03:59:04;15.30;91.10
29501;DHT22;16450;50.288;10.966;2022-07-30T04:02:05;15.30;91.10
29501;DHT22;16450;50.288;10.966;2022-07-30T04:05:06;15.20;91.10
29501;DHT22;16450;50.288;10.966;2022-07-30T04:08:07;15.20;91.10
29501;DHT22;16450;50.288;10.966;2022-07-30T04:11:08;15.20;91.10
29501;DHT22;16450;50.288;10.966;2022-07-30T04:14:09;15.20;91.20
29501;DHT22;16450;50.288;10.966;2022-07-30T04:17:18;15.10;91.30
29501;DHT22;16450;50.288;10.966;2022-07-30T04:20:23;15.00;91.30
29501;DHT22;16450;50.288;10.966;2022-07-30T04:23:24;15.10;91.60
29501;DHT22;16450;50.288;10.966;2022-07-30T04:26:25;15.10;91.80
29501;DHT22;16450;50.288;10.966;2022-07-30T04:29:26;15.20;92.00
29501;DHT22;16450;50.288;10.966;2022-07-30T04:32:27;15.20;92.10
29501;DHT22;16450;50.288;10.966;2022-07-30T04:35:32;15.20;92.30
29501;DHT22;16450;50.288;10.966;2022-07-30T04:38:33;15.20;92.50
29501;DHT22;16450;50.288;10.966;2022-07-30T04:41:34;15.30;92.80
29501;DHT22;16450;50.288;10.966;2022-07-30T04:44:35;15.30;92.90
29501;DHT22;16450;50.288;10.966;2022-07-30T04:47:36;15.40;93.10
29501;DHT22;16450;50.288;10.966;2022-07-30T04:50:40;15.40;93.20
29501;DHT22;16450;50.288;10.966;2022-07-30T04:53:42;15.50;93.20
29501;DHT22;16450;50.288;10.966;2022-07-30T04:56:46;15.50;93.20
29501;DHT22;16450;50.288;10.966;2022-07-30T04:59:47;15.60;93.30
29501;DHT22;16450;50.288;10.966;2022-07-30T05:02:48;15.70;93.50
29501;DHT22;16450;50.288;10.966;2022-07-30T05:05:51;15.80;93.70
29501;DHT22;16450;50.288;10.966;2022-07-30T05:08:53;15.80;93.60
29501;DHT22;16450;50.288;10.966;2022-07-30T05:11:56;15.80;93.50
29501;DHT22;16450;50.288;10.966;2022-07-30T05:14:56;15.90;93.50
29501;DHT22;16450;50.288;10.966;2022-07-30T05:17:58;16.00;93.80
29501;DHT22;16450;50.288;10.966;2022-07-30T05:20:58;16.00;93.70
29501;DHT22;16450;50.288;10.966;2022-07-30T05:23:59;16.10;93.90
29501;DHT22;16450;50.288;10.966;2022-07-30T05:26:59;16.20;93.90
29501;DHT22;16450;50.288;10.966;2022-07-30T05:30:00;16.20;93.90
29501;DHT22;16450;50.288;10.966;2022-07-30T05:33:01;16.20;93.90
29501;DHT22;16450;50.288;10.966;2022-07-30T05:36:02;16.30;94.00
29501;DHT22;16450;50.288;10.966;2022-07-30T05:39:03;16.40;94.00
29501;DHT22;16450;50.288;10.966;2022-07-30T05:42:03;16.40;93.90
29501;DHT22;16450;50.288;10.966;2022-07-30T05:45:04;16.50;94.00
29501;DHT22;16450;50.288;10.966;2022-07-30T05:48:05;16.50;93.80
29501;DHT22;16450;50.288;10.966;2022-07-30T05:51:06;16.50;93.80
29501;DHT22;16450;50.288;10.966;2022-07-30T05:54:07;16.60;94.40
29501;DHT22;16450;50.288;10.966;2022-07-30T05:57:07;16.70;95.00
29501;DHT22;16450;50.288;10.966;2022-07-30T06:00:10;16.80;95.40
29501;DHT22;16450;50.288;10.966;2022-07-30T06:03:11;17.10;95.80
29501;DHT22;16450;50.288;10.966;2022-07-30T06:06:12;17.30;96.20
29501;DHT22;16450;50.288;10.966;2022-07-30T06:09:13;17.60;95.80
29501;DHT22;16450;50.288;10.966;2022-07-30T06:12:13;17.70;95.00
29501;DHT22;16450;50.288;10.966;2022-07-30T06:15:14;17.80;94.40
29501;DHT22;16450;50.288;10.966;2022-07-30T06:18:15;17.90;94.10
29501;DHT22;16450;50.288;10.966;2022-07-30T06:21:15;17.90;94.00
29501;DHT22;16450;50.288;10.966;2022-07-30T06:24:16;18.00;93.90
29501;DHT22;16450;50.288;10.966;2022-07-30T06:27:17;18.10;94.20
29501;DHT22;16450;50.288;10.966;2022-07-30T06:30:18;18.10;94.00
29501;DHT22;16450;50.288;10.966;2022-07-30T06:33:18;18.20;94.10
29501;DHT22;16450;50.288;10.966;2022-07-30T06:36:19;18.40;94.70
29501;DHT22;16450;50.288;10.966;2022-07-30T06:39:20;18.50;94.50
29501;DHT22;16450;50.288;10.966;2022-07-30T06:42:21;18.60;94.90
29501;DHT22;16450;50.288;10.966;2022-07-30T06:45:21;18.90;96.90
29501;DHT22;16450;50.288;10.966;2022-07-30T06:48:22;19.30;97.80
29501;DHT22;16450;50.288;10.966;2022-07-30T06:51:23;19.80;97.40
29501;DHT22;16450;50.288;10.966;2022-07-30T06:54:23;20.20;96.70
29501;DHT22;16450;50.288;10.966;2022-07-30T06:57:24;20.60;95.20
29501;DHT22;16450;50.288;10.966;2022-07-30T07:00:25;20.70;94.60
29501;DHT22;16450;50.288;10.966;2022-07-30T07:03:25;21.00;94.90
29501;DHT22;16450;50.288;10.966;2022-07-30T07:06:26;21.30;95.60
29501;DHT22;16450;50.288;10.966;2022-07-30T07:09:27;21.70;95.90
29501;DHT22;16450;50.288;10.966;2022-07-30T07:12:28;22.10;96.00
29501;DHT22;16450;50.288;10.966;2022-07-30T07:15:28;22.50;95.20
29501;DHT22;16450;50.288;10.966;2022-07-30T07:18:29;23.00;94.80
29501;DHT22;16450;50.288;10.966;2022-07-30T07:21:30;23.40;93.80
29501;DHT22;16450;50.288;10.966;2022-07-30T07:24:31;23.60;91.70
29501;DHT22;16450;50.288;10.966;2022-07-30T07:27:31;23.70;90.30
29501;DHT22;16450;50.288;10.966;2022-07-30T07:30:32;23.70;89.80
29501;DHT22;16450;50.288;10.966;2022-07-30T07:33:33;23.70;90.40
29501;DHT22;16450;50.288;10.966;2022-07-30T07:36:33;23.70;90.60
29501;DHT22;16450;50.288;10.966;2022-07-30T07:39:35;23.70;90.00
29501;DHT22;16450;50.288;10.966;2022-07-30T07:42:36;23.70;88.90
29501;DHT22;16450;50.288;10.966;2022-07-30T07:45:36;23.60;87.60
29501;DHT22;16450;50.288;10.966;2022-07-30T07:48:37;23.40;86.80
29501;DHT22;16450;50.288;10.966;2022-07-30T07:51:38;23.10;86.60
29501;DHT22;16450;50.288;10.966;2022-07-30T07:54:39;22.90;86.20
29501;DHT22;16450;50.288;10.966;2022-07-30T07:57:41;22.70;86.60
29501;DHT22;16450;50.288;10.966;2022-07-30T08:00:42;22.40;87.00
29501;DHT22;16450;50.288;10.966;2022-07-30T08:03:43;22.10;88.30
29501;DHT22;16450;50.288;10.966;2022-07-30T08:06:43;22.00;89.30
29501;DHT22;16450;50.288;10.966;2022-07-30T08:09:44;21.80;90.70
29501;DHT22;16450;50.288;10.966;2022-07-30T08:12:45;21.70;91.80
29501;DHT22;16450;50.288;10.966;2022-07-30T08:15:45;21.80;91.90
29501;DHT22;16450;50.288;10.966;2022-07-30T08:18:46;21.80;91.20
29501;DHT22;16450;50.288;10.966;2022-07-30T08:21:47;21.70;90.20
29501;DHT22;16450;50.288;10.966;2022-07-30T08:24:47;21.50;89.50
29501;DHT22;16450;50.288;10.966;2022-07-30T08:27:48;21.30;89.30
29501;DHT22;16450;50.288;10.966;2022-07-30T08:30:48;21.20;90.10
29501;DHT22;16450;50.288;10.966;2022-07-30T08:33:49;21.00;90.60
29501;DHT22;16450;50.288;10.966;2022-07-30T08:36:50;20.90;92.00
29501;DHT22;16450;50.288;10.966;2022-07-30T08:39:50;21.00;93.70
29501;DHT22;16450;50.288;10.966;2022-07-30T08:42:52;21.10;94.20
29501;DHT22;16450;50.288;10.966;2022-07-30T08:45:55;21.30;93.90
29501;DHT22;16450;50.288;10.966;2022-07-30T08:48:57;21.60;94.40
29501;DHT22;16450;50.288;10.966;2022-07-30T08:51:58;21.90;95.50
29501;DHT22;16450;50.288;10.966;2022-07-30T08:54:59;22.40;95.80
29501;DHT22;16450;50.288;10.966;2022-07-30T08:58:00;22.80;94.50
29501;DHT22;16450;50.288;10.966;2022-07-30T09:01:04;23.10;93.90
29501;DHT22;16450;50.288;10.966;2022-07-30T09:04:05;23.50;92.90
29501;DHT22;16450;50.288;10.966;2022-07-30T09:07:06;23.80;93.40
29501;DHT22;16450;50.288;10.966;2022-07-30T09:10:08;24.10;93.00
29501;DHT22;16450;50.288;10.966;2022-07-30T09:13:23;24.40;91.70
29501;DHT22;16450;50.288;10.966;2022-07-30T09:16:25;24.70;86.80
29501;DHT22;16450;50.288;10.966;2022-07-30T09:19:26;24.90;90.30
29501;DHT22;16450;50.288;10.966;2022-07-30T09:22:41;25.10;90.40
29501;DHT22;16450;50.288;10.966;2022-07-30T09:25:44;25.40;83.60
29501;DHT22;16450;50.288;10.966;2022-07-30T09:28:45;25.60;90.00
29501;DHT22;16450;50.288;10.966;2022-07-30T09:32:12;25.80;89.30
29501;DHT22;16450;50.288;10.966;2022-07-30T09:35:13;26.00;80.00
29501;DHT22;16450;50.288;10.966;2022-07-30T09:38:14;26.20;84.30
29501;DHT22;16450;50.288;10.966;2022-07-30T09:41:17;26.20;82.90
29501;DHT22;16450;50.288;10.966;2022-07-30T09:44:23;26.20;82.10
29501;DHT22;16450;50.288;10.966;2022-07-30T09:47:31;26.10;79.10
29501;DHT22;16450;50.288;10.966;2022-07-30T09:50:32;26.10;77.50
29501;DHT22;16450;50.288;10.966;2022-07-30T09:53:34;26.00;80.30
29501;DHT22;16450;50.288;10.966;2022-07-30T09:56:35;25.90;79.10
29501;DHT22;16450;50.288;10.966;2022-07-30T09:59:36;25.80;81.50
29501;DHT22;16450;50.288;10.966;2022-07-30T10:02:37;25.70;81.90
29501;DHT22;16450;50.288;10.966;2022-07-30T10:05:38;25.70;82.40
29501;DHT22;16450;50.288;10.966;2022-07-30T10:08:45;25.60;82.50
29501;DHT22;16450;50.288;10.966;2022-07-30T10:11:46;25.60;79.20
29501;DHT22;16450;50.288;10.966;2022-07-30T10:14:48;25.60;80.70
29501;DHT22;16450;50.288;10.966;2022-07-30T10:17:52;25.50;78.40
29501;DHT22;16450;50.288;10.966;2022-07-30T10:20:53;25.40;80.90
29501;DHT22;16450;50.288;10.966;2022-07-30T10:23:54;25.40;81.60
29501;DHT22;16450;50.288;10.966;2022-07-30T10:26:55;25.50;81.50
29501;DHT22;16450;50.288;10.966;2022-07-30T10:29:57;25.50;82.30
29501;DHT22;16450;50.288;10.966;2022-07-30T10:32:59;25.60;81.90
29501;DHT22;16450;50.288;10.966;2022-07-30T10:36:00;25.70;83.10
29501;DHT22;16450;50.288;10.966;2022-07-30T10:39:01;25.80;83.10
29501;DHT22;16450;50.288;10.966;2022-07-30T10:48:24;26.20;73.60
29501;DHT22;16450;50.288;10.966;2022-07-30T10:51:51;26.20;77.30
29501;DHT22;16450;50.288;10.966;2022-07-30T10:54:54;26.20;70.60
29501;DHT22;16450;50.288;10.966;2022-07-30T10:57:59;26.20;79.00
29501;DHT22;16450;50.288;10.966;2022-07-30T11:00:59;26.30;76.50
29501;DHT22;16450;50.288;10.966;2022-07-30T11:10:35;26.70;75.20
29501;DHT22;16450;50.288;10.966;2022-07-30T11:14:00;26.90;70.90
29501;DHT22;16450;50.288;10.966;2022-07-30T11:17:01;26.90;69.40
29501;DHT22;16450;50.288;10.966;2022-07-30T11:23:10;26.80;74.10
29501;DHT22;16450;50.288;10.966;2022-07-30T11:26:47;26.60;72.20
29501;DHT22;16450;50.288;10.966;2022-07-30T11:29:48;26.30;66.20
29501;DHT22;16450;50.288;10.966;2022-07-30T11:32:53;26.10;71.70
29501;DHT22;16450;50.288;10.966;2022-07-30T11:39:05;25.50;67.10
29501;DHT22;16450;50.288;10.966;2022-07-30T11:45:28;24.90;68.00
29501;DHT22;16450;50.288;10.966;2022-07-30T11:48:30;24.70;72.90
29501;DHT22;16450;50.288;10.966;2022-07-30T11:51:41;24.50;72.80
29501;DHT22;16450;50.288;10.966;2022-07-30T11:55:00;24.10;70.20
29501;DHT22;16450;50.288;10.966;2022-07-30T11:58:03;23.90;70.10
29501;DHT22;16450;50.288;10.966;2022-07-30T12:01:14;23.60;73.00
29501;DHT22;16450;50.288;10.966;2022-07-30T12:04:15;23.40;72.40
29501;DHT22;16450;50.288;10.966;2022-07-30T12:07:22;23.20;76.30
29501;DHT22;16450;50.288;10.966;2022-07-30T12:10:23;23.00;76.00
29501;DHT22;16450;50.288;10.966;2022-07-30T12:13:24;22.90;77.10
29501;DHT22;16450;50.288;10.966;2022-07-30T12:16:26;22.70;76.80
29501;DHT22;16450;50.288;10.966;2022-07-30T12:19:27;22.50;76.70
29501;DHT22;16450;50.288;10.966;2022-07-30T12:22:31;22.40;77.30
29501;DHT22;16450;50.288;10.966;2022-07-30T12:25:37;22.30;76.70
29501;DHT22;16450;50.288;10.966;2022-07-30T12:28:38;22.10;76.80
29501;DHT22;16450;50.288;10.966;2022-07-30T12:31:39;21.90;78.00
29501;DHT22;16450;50.288;10.966;2022-07-30T12:34:54;21.70;77.40
29501;DHT22;16450;50.288;10.966;2022-07-30T12:38:03;21.50;75.80
29501;DHT22;16450;50.288;10.966;2022-07-30T12:41:04;21.30;76.00
29501;DHT22;16450;50.288;10.966;2022-07-30T12:44:05;21.10;77.10
29501;DHT22;16450;50.288;10.966;2022-07-30T12:50:18;20.70;77.80
29501;DHT22;16450;50.288;10.966;2022-07-30T12:53:28;20.60;80.70
29501;DHT22;16450;50.288;10.966;2022-07-30T12:56:29;20.70;81.50
29501;DHT22;16450;50.288;10.966;2022-07-30T12:59:31;20.80;84.70
29501;DHT22;16450;50.288;10.966;2022-07-30T13:02:34;20.90;85.30
29501;DHT22;16450;50.288;10.966;2022-07-30T13:05:49;21.10;86.10
29501;DHT22;16450;50.288;10.966;2022-07-30T13:08:58;21.40;83.60
29501;DHT22;16450;50.288;10.966;2022-07-30T13:11:58;21.60;85.50
29501;DHT22;16450;50.288;10.966;2022-07-30T13:14:59;21.90;87.50
29501;DHT22;16450;50.288;10.966;2022-07-30T13:18:00;22.10;87.40
29501;DHT22;16450;50.288;10.966;2022-07-30T13:21:02;22.30;86.80
29501;DHT22;16450;50.288;10.966;2022-07-30T13:24:03;22.50;84.80
29501;DHT22;16450;50.288;10.966;2022-07-30T13:27:04;22.70;84.80
29501;DHT22;16450;50.288;10.966;2022-07-30T13:30:06;22.90;84.90
29501;DHT22;16450;50.288;10.966;2022-07-30T13:33:06;23.10;84.60
29501;DHT22;16450;50.288;10.966;2022-07-30T13:36:07;23.20;84.30
29501;DHT22;16450;50.288;10.966;2022-07-30T13:39:08;23.30;83.10
29501;DHT22;16450;50.288;10.966;2022-07-30T13:42:10;23.40;83.60
29501;DHT22;16450;50.288;10.966;2022-07-30T13:45:11;23.40;83.30
29501;DHT22;16450;50.288;10.966;2022-07-30T13:48:12;23.40;83.20
29501;DHT22;16450;50.288;10.966;2022-07-30T13:51:12;23.50;83.10
29501;DHT22;16450;50.288;10.966;2022-07-30T13:54:13;23.50;82.20
29501;DHT22;16450;50.288;10.966;2022-07-30T13:57:14;23.40;81.10
29501;DHT22;16450;50.288;10.966;2022-07-30T14:00:15;23.40;80.80
29501;DHT22;16450;50.288;10.966;2022-07-30T14:03:16;23.30;80.10
29501;DHT22;16450;50.288;10.966;2022-07-30T14:06:17;23.20;79.90
29501;DHT22;16450;50.288;10.966;2022-07-30T14:09:18;23.10;78.60
29501;DHT22;16450;50.288;10.966;2022-07-30T14:12:18;23.00;78.60
29501;DHT22;16450;50.288;10.966;2022-07-30T14:15:20;22.90;78.30
29501;DHT22;16450;50.288;10.966;2022-07-30T14:18:21;22.80;78.30
29501;DHT22;16450;50.288;10.966;2022-07-30T14:21:22;22.70;79.80
29501;DHT22;16450;50.288;10.966;2022-07-30T14:24:22;22.60;80.40
29501;DHT22;16450;50.288;10.966;2022-07-30T14:27:23;22.60;80.10
29501;DHT22;16450;50.288;10.966;2022-07-30T14:30:23;22.50;79.60
29501;DHT22;16450;50.288;10.966;2022-07-30T14:33:24;22.50;79.60
29501;DHT22;16450;50.288;10.966;2022-07-30T14:36:25;22.40;79.30
29501;DHT22;16450;50.288;10.966;2022-07-30T14:39:29;22.30;79.80
29501;DHT22;16450;50.288;10.966;2022-07-30T14:42:30;22.30;80.60
29501;DHT22;16450;50.288;10.966;2022-07-30T14:45:30;22.20;80.10
29501;DHT22;16450;50.288;10.966;2022-07-30T14:48:31;22.20;80.20
29501;DHT22;16450;50.288;10.966;2022-07-30T14:51:31;22.20;80.70
29501;DHT22;16450;50.288;10.966;2022-07-30T14:54:32;22.20;81.20
29501;DHT22;16450;50.288;10.966;2022-07-30T14:57:33;22.30;82.20
29501;DHT22;16450;50.288;10.966;2022-07-30T15:00:34;22.30;82.10
29501;DHT22;16450;50.288;10.966;2022-07-30T15:03:35;22.30;81.60
29501;DHT22;16450;50.288;10.966;2022-07-30T15:06:36;22.40;81.80
29501;DHT22;16450;50.288;10.966;2022-07-30T15:09:36;22.40;82.00
29501;DHT22;16450;50.288;10.966;2022-07-30T15:12:37;22.40;82.20
29501;DHT22;16450;50.288;10.966;2022-07-30T15:15:38;22.50;81.50
29501;DHT22;16450;50.288;10.966;2022-07-30T15:18:38;22.50;80.90
29501;DHT22;16450;50.288;10.966;2022-07-30T15:21:39;22.40;79.50
29501;DHT22;16450;50.288;10.966;2022-07-30T15:24:40;22.40;79.00
29501;DHT22;16450;50.288;10.966;2022-07-30T15:27:40;22.30;78.50
29501;DHT22;16450;50.288;10.966;2022-07-30T15:30:41;22.30;78.50
29501;DHT22;16450;50.288;10.966;2022-07-30T15:33:42;22.30;78.80
29501;DHT22;16450;50.288;10.966;2022-07-30T15:36:44;22.20;78.20
29501;DHT22;16450;50.288;10.966;2022-07-30T15:39:44;22.20;78.20
29501;DHT22;16450;50.288;10.966;2022-07-30T15:42:45;22.20;78.20
29501;DHT22;16450;50.288;10.966;2022-07-30T15:45:46;22.10;78.70
29501;DHT22;16450;50.288;10.966;2022-07-30T15:48:46;22.10;78.60
29501;DHT22;16450;50.288;10.966;2022-07-30T15:51:47;22.10;79.10
29501;DHT22;16450;50.288;10.966;2022-07-30T15:54:48;22.10;79.40
29501;DHT22;16450;50.288;10.966;2022-07-30T15:57:49;22.20;79.80
29501;DHT22;16450;50.288;10.966;2022-07-30T16:00:49;22.20;79.50
29501;DHT22;16450;50.288;10.966;2022-07-30T16:03:50;22.20;79.50
29501;DHT22;16450;50.288;10.966;2022-07-30T16:06:54;22.30;79.20
29501;DHT22;16450;50.288;10.966;2022-07-30T16:09:56;22.30;79.40
29501;DHT22;16450;50.288;10.966;2022-07-30T16:12:57;22.30;79.10
29501;DHT22;16450;50.288;10.966;2022-07-30T16:15:57;22.30;79.50
29501;DHT22;16450;50.288;10.966;2022-07-30T16:18:58;22.30;79.40
29501;DHT22;16450;50.288;10.966;2022-07-30T16:21:59;22.30;79.40
29501;DHT22;16450;50.288;10.966;2022-07-30T16:24:59;22.20;78.90
29501;DHT22;16450;50.288;10.966;2022-07-30T16:28:00;22.20;78.90
29501;DHT22;16450;50.288;10.966;2022-07-30T16:31:01;22.20;78.90
29501;DHT22;16450;50.288;10.966;2022-07-30T16:34:02;22.10;78.40
29501;DHT22;16450;50.288;10.966;2022-07-30T16:37:02;22.10;78.40
29501;DHT22;16450;50.288;10.966;2022-07-30T16:40:03;22.10;78.60
29501;DHT22;16450;50.288;10.966;2022-07-30T16:43:04;22.00;78.50
29501;DHT22;16450;50.288;10.966;2022-07-30T16:46:06;22.10;78.90
29501;DHT22;16450;50.288;10.966;2022-07-30T16:49:07;22.00;79.00
29501;DHT22;16450;50.288;10.966;2022-07-30T16:52:08;22.00;78.70
29501;DHT22;16450;50.288;10.966;2022-07-30T16:55:09;22.00;78.80
29501;DHT22;16450;50.288;10.966;2022-07-30T16:58:10;22.00;78.70
29501;DHT22;16450;50.288;10.966;2022-07-30T17:01:10;21.90;79.00
29501;DHT22;16450;50.288;10.966;2022-07-30T17:04:11;22.00;79.80
29501;DHT22;16450;50.288;10.966;2022-07-30T17:07:12;22.00;79.80
29501;DHT22;16450;50.288;10.966;2022-07-30T17:10:12;22.00;80.20
29501;DHT22;16450;50.288;10.966;2022-07-30T17:13:13;22.00;80.00
29501;DHT22;16450;50.288;10.966;2022-07-30T17:16:14;22.00;80.10
29501;DHT22;16450;50.288;10.966;2022-07-30T17:19:14;22.00;79.40
29501;DHT22;16450;50.288;10.966;2022-07-30T17:22:15;22.00;79.30
29501;DHT22;16450;50.288;10.966;2022-07-30T17:25:15;22.00;78.90
29501;DHT22;16450;50.288;10.966;2022-07-30T17:28:16;21.90;78.80
29501;DHT22;16450;50.288;10.966;2022-07-30T17:31:18;21.90;78.90
29501;DHT22;16450;50.288;10.966;2022-07-30T17:34:19;21.90;78.40
29501;DHT22;16450;50.288;10.966;2022-07-30T17:37:20;21.90;78.80
29501;DHT22;16450;50.288;10.966;2022-07-30T17:40:20;21.80;78.40
29501;DHT22;16450;50.288;10.966;2022-07-30T17:43:21;21.80;78.60
29501;DHT22;16450;50.288;10.966;2022-07-30T17:46:22;21.70;79.00
29501;DHT22;16450;50.288;10.966;2022-07-30T17:49:22;21.70;79.50
29501;DHT22;16450;50.288;10.966;2022-07-30T17:52:23;21.70;79.50
29501;DHT22;16450;50.288;10.966;2022-07-30T17:55:24;21.60;79.50
29501;DHT22;16450;50.288;10.966;2022-07-30T17:58:25;21.60;78.90
29501;DHT22;16450;50.288;10.966;2022-07-30T18:01:26;21.50;79.00
29501;DHT22;16450;50.288;10.966;2022-07-30T18:04:26;21.50;78.70
29501;DHT22;16450;50.288;10.966;2022-07-30T18:07:27;21.40;78.90
29501;DHT22;16450;50.288;10.966;2022-07-30T18:10:28;21.40;79.00
29501;DHT22;16450;50.288;10.966;2022-07-30T18:13:28;21.30;79.00
29501;DHT22;16450;50.288;10.966;2022-07-30T18:16:29;21.30;79.20
29501;DHT22;16450;50.288;10.966;2022-07-30T18:19:30;21.20;80.00
29501;DHT22;16450;50.288;10.966;2022-07-30T18:22:30;21.20;79.10
29501;DHT22;16450;50.288;10.966;2022-07-30T18:25:31;21.10;79.10
29501;DHT22;16450;50.288;10.966;2022-07-30T18:28:32;21.00;78.90
29501;DHT22;16450;50.288;10.966;2022-07-30T18:31:33;21.00;79.20
29501;DHT22;16450;50.288;10.966;2022-07-30T18:34:34;21.00;79.60
29501;DHT22;16450;50.288;10.966;2022-07-30T18:37:35;20.90;80.00
29501;DHT22;16450;50.288;10.966;2022-07-30T18:40:36;20.90;80.20
29501;DHT22;16450;50.288;10.966;2022-07-30T18:43:36;20.80;80.10
29501;DHT22;16450;50.288;10.966;2022-07-30T18:46:38;20.80;80.00
29501;DHT22;16450;50.288;10.966;2022-07-30T18:49:38;20.80;80.00
29501;DHT22;16450;50.288;10.966;2022-07-30T18:52:39;20.80;80.20
29501;DHT22;16450;50.288;10.966;2022-07-30T18:55:41;20.70;80.10
29501;DHT22;16450;50.288;10.966;2022-07-30T18:58:41;20.70;80.40
29501;DHT22;16450;50.288;10.966;2022-07-30T19:01:42;20.70;80.60
29501;DHT22;16450;50.288;10.966;2022-07-30T19:04:43;20.60;80.80
29501;DHT22;16450;50.288;10.966;2022-07-30T19:07:44;20.60;80.90
29501;DHT22;16450;50.288;10.966;2022-07-30T19:10:45;20.50;80.80
29501;DHT22;16450;50.288;10.966;2022-07-30T19:13:45;20.50;81.10
29501;DHT22;16450;50.288;10.966;2022-07-30T19:16:46;20.40;81.20
29501;DHT22;16450;50.288;10.966;2022-07-30T19:19:47;20.40;81.30
29501;DHT22;16450;50.288;10.966;2022-07-30T19:22:49;20.40;81.30